Time;durP1;ratioP1;P1;durP2;ratioP2;P2;SDS_P1;SDS_P2;PMS_P1;PMS_P2;Temp;Humidity;BMP_temperature;BMP_pressure;BME280_temperature;BME280_humidity;BME280_pressure;Samples;Min_cycle;Max_cycle;Signal;HPM_P1;HPM_P2
2021/08/17 00:00:07;;;;;;;5.93;3.08;;;;;;;12.39;nan;100811.47;5015480;28;20159;-79
2021/08/17 00:02:32;;;;;;;5.75;3.25;;;;;;;12.34;nan;100809.28;5029954;28;20033;-79
2021/08/17 00:04:58;;;;;;;3.90;2.90;;;;;;;12.29;nan;100814.25;5033338;28;20041;-79
2021/08/17 00:07:23;;;;;;;5.32;3.33;;;;;;;12.25;nan;100812.88;5026103;28;20121;-79
2021/08/17 00:09:49;;;;;;;5.68;3.33;;;;;;;12.19;nan;100813.53;5015614;28;20034;-79
2021/08/17 00:12:15;;;;;;;7.57;3.47;;;;;;;12.13;nan;100814.13;5028149;28;20127;-79
2021/08/17 00:14:40;;;;;;;6.07;3.63;;;;;;;12.12;nan;100818.59;5012104;28;20034;-79
2021/08/17 00:17:09;;;;;;;6.57;3.78;;;;;;;12.02;nan;100818.69;5015463;28;20494;-79
2021/08/17 00:19:38;;;;;;;7.25;3.53;;;;;;;11.99;nan;100816.38;5015127;28;20091;-79
2021/08/17 00:22:03;;;;;;;6.72;3.63;;;;;;;11.90;nan;100811.97;5033583;28;20037;-79
2021/08/17 00:24:28;;;;;;;5.28;3.17;;;;;;;11.92;nan;100807.38;5031779;28;20033;-79
2021/08/17 00:26:54;;;;;;;5.57;3.53;;;;;;;11.86;nan;100799.97;5015295;28;20059;-79
2021/08/17 00:29:19;;;;;;;5.55;3.20;;;;;;;11.79;nan;100802.41;5028377;28;20050;-78
2021/08/17 00:31:44;;;;;;;6.68;3.38;;;;;;;11.76;nan;100799.25;4999201;28;20464;-79
2021/08/17 00:34:10;;;;;;;6.05;3.35;;;;;;;11.74;nan;100804.69;5032425;28;20037;-78
2021/08/17 00:36:35;;;;;;;5.85;3.50;;;;;;;11.67;nan;100793.03;5027103;28;20506;-78
2021/08/17 00:39:01;;;;;;;8.55;4.15;;;;;;;11.63;nan;100800.47;5011621;28;20125;-79
2021/08/17 00:41:26;;;;;;;7.75;3.85;;;;;;;11.62;nan;100798.78;5018301;28;20030;-79
2021/08/17 00:43:53;;;;;;;6.95;3.55;;;;;;;11.60;nan;100790.16;5032940;28;20041;-78
2021/08/17 00:46:18;;;;;;;5.00;3.00;;;;;;;11.62;nan;100795.31;5014889;28;20060;-78
2021/08/17 00:48:43;;;;;;;7.18;3.65;;;;;;;11.59;nan;100795.63;5032454;28;20517;-79
2021/08/17 00:51:09;;;;;;;5.80;3.40;;;;;;;11.61;nan;100797.13;5028002;28;20069;-78
2021/08/17 00:53:36;;;;;;;6.28;3.53;;;;;;;11.56;nan;100794.13;5028974;28;20041;-79
2021/08/17 00:56:02;;;;;;;5.65;3.60;;;;;;;11.59;nan;100795.63;5029051;28;20048;-78
2021/08/17 00:58:28;;;;;;;6.80;2.90;;;;;;;11.55;nan;100791.59;5029144;28;20037;-79
2021/08/17 01:00:56;;;;;;;10.95;3.72;;;;;;;11.50;nan;100802.66;5031340;28;20405;-79
2021/08/17 01:03:22;;;;;;;5.65;3.17;;;;;;;11.48;nan;100805.44;5027552;28;20034;-79
2021/08/17 01:05:47;;;;;;;4.78;3.28;;;;;;;11.41;nan;100807.03;5032216;28;20556;-80
2021/08/17 01:08:12;;;;;;;7.75;4.00;;;;;;;11.41;nan;100804.38;5008389;28;20395;-79
2021/08/17 01:10:38;;;;;;;5.78;3.70;;;;;;;11.38;nan;100809.16;5015307;28;20036;-78
2021/08/17 01:13:03;;;;;;;6.10;3.40;;;;;;;11.40;nan;100805.38;4996277;28;20029;-79
2021/08/17 01:15:28;;;;;;;5.55;3.55;;;;;;;11.39;nan;100809.00;5023052;28;20310;-79
2021/08/17 01:17:54;;;;;;;7.75;4.20;;;;;;;11.33;nan;100806.94;5023782;28;20042;-79
2021/08/17 01:20:19;;;;;;;7.22;3.88;;;;;;;11.29;nan;100795.00;5028951;28;20025;-79
2021/08/17 01:22:46;;;;;;;7.30;4.03;;;;;;;11.29;nan;100804.75;5028808;28;20133;-79
2021/08/17 01:25:12;;;;;;;7.05;3.80;;;;;;;11.31;nan;100798.31;5013830;28;20037;-79
2021/08/17 01:27:40;;;;;;;7.30;4.32;;;;;;;11.27;nan;100805.75;5032106;28;20025;-79
2021/08/17 01:30:07;;;;;;;5.63;3.90;;;;;;;11.25;nan;100810.34;5018469;28;20073;-79
2021/08/17 01:32:32;;;;;;;6.65;3.90;;;;;;;11.22;nan;100810.63;5020973;28;20029;-79
2021/08/17 01:34:57;;;;;;;6.93;3.80;;;;;;;11.18;nan;100814.59;5031347;28;20068;-78
2021/08/17 01:37:23;;;;;;;6.22;3.80;;;;;;;11.19;nan;100823.34;5029754;28;20121;-79
2021/08/17 01:40:09;;;;;;;6.55;3.50;;;;;;;11.23;nan;100817.59;5031833;28;20084;-79
2021/08/17 01:42:36;;;;;;;6.15;3.72;;;;;;;11.18;nan;100821.69;5031946;28;20034;-78
2021/08/17 01:45:01;;;;;;;7.93;3.80;;;;;;;11.14;nan;100820.31;5014763;28;20116;-79
2021/08/17 01:47:28;;;;;;;6.50;3.75;;;;;;;11.14;nan;100820.31;5025474;28;20469;-79
2021/08/17 01:49:54;;;;;;;7.07;3.83;;;;;;;11.07;nan;100837.75;5024710;28;20112;-79
2021/08/17 01:52:19;;;;;;;6.75;4.07;;;;;;;11.07;nan;100829.81;5027948;28;20082;-78
2021/08/17 01:54:45;;;;;;;6.65;3.92;;;;;;;11.06;nan;100831.66;5013879;28;20113;-79
2021/08/17 01:57:10;;;;;;;8.25;4.00;;;;;;;11.00;nan;100838.34;5031545;28;20049;-80
2021/08/17 01:59:35;;;;;;;7.22;4.07;;;;;;;10.99;nan;100836.69;5004162;28;20164;-79
2021/08/17 02:02:00;;;;;;;7.60;4.18;;;;;;;11.01;nan;100837.38;5018197;28;20030;-79
2021/08/17 02:04:28;;;;;;;7.88;4.20;;;;;;;11.06;nan;100831.66;5016428;28;20045;-79
2021/08/17 02:06:54;;;;;;;7.03;4.10;;;;;;;11.13;nan;100838.00;5021072;28;20041;-80
2021/08/17 02:09:19;;;;;;;6.22;3.63;;;;;;;11.23;nan;100828.19;5029650;28;20033;-79
2021/08/17 02:11:45;;;;;;;8.98;4.10;;;;;;;11.38;nan;100833.81;5007360;28;20037;-79
2021/08/17 02:14:10;;;;;;;6.20;3.70;;;;;;;11.47;nan;100835.56;5022028;28;20036;-79
2021/08/17 02:16:36;;;;;;;6.88;4.15;;;;;;;11.50;nan;100837.06;5026367;28;20449;-78
2021/08/17 02:19:01;;;;;;;7.10;3.92;;;;;;;11.55;nan;100837.44;4997007;28;20038;-78
2021/08/17 02:21:26;;;;;;;8.05;4.50;;;;;;;11.52;nan;100840.41;5006737;28;20116;-78
2021/08/17 02:23:51;;;;;;;7.43;3.97;;;;;;;11.48;nan;100846.97;5030382;28;20049;-78
2021/08/17 02:26:17;;;;;;;6.70;4.10;;;;;;;11.55;nan;100836.63;5029294;28;20033;-78
2021/08/17 02:28:42;;;;;;;7.88;4.25;;;;;;;11.63;nan;100837.56;5030117;28;20034;-77
2021/08/17 02:31:07;;;;;;;6.60;3.50;;;;;;;11.64;nan;100839.19;5002457;28;20104;-78
2021/08/17 02:33:33;;;;;;;5.97;3.65;;;;;;;11.62;nan;100837.69;5020059;28;20417;-77
2021/08/17 02:35:58;;;;;;;7.28;4.05;;;;;;;11.58;nan;100838.97;5007768;28;20044;-78
2021/08/17 02:38:23;;;;;;;8.45;4.28;;;;;;;11.65;nan;100843.50;5023772;28;20022;-78
2021/08/17 02:40:49;;;;;;;6.38;4.05;;;;;;;11.70;nan;100845.69;5026203;28;20493;-78
2021/08/17 02:43:14;;;;;;;6.78;4.32;;;;;;;11.77;nan;100844.09;5029865;28;20045;-78
2021/08/17 02:45:39;;;;;;;6.43;3.58;;;;;;;11.79;nan;100841.31;5020877;28;20125;-78
2021/08/17 02:48:05;;;;;;;8.18;4.60;;;;;;;11.75;nan;100853.19;5025977;28;20030;-78
2021/08/17 02:50:31;;;;;;;7.78;4.70;;;;;;;11.67;nan;100851.31;5028687;28;20072;-77
2021/08/17 02:52:56;;;;;;;9.40;4.00;;;;;;;11.73;nan;100855.16;5008462;28;20508;-77
2021/08/17 02:55:22;;;;;;;9.60;4.53;;;;;;;11.79;nan;100854.56;5029021;28;20125;-78
2021/08/17 02:57:50;;;;;;;8.52;4.43;;;;;;;11.68;nan;100853.81;5010634;28;20062;-78
2021/08/17 03:00:16;;;;;;;10.20;4.70;;;;;;;11.65;nan;100861.22;5028084;28;20034;-78
2021/08/17 03:02:41;;;;;;;8.27;4.65;;;;;;;11.67;nan;100870.69;5010686;28;20034;-78
2021/08/17 03:05:07;;;;;;;8.77;4.22;;;;;;;11.69;nan;100866.06;5030735;28;20048;-78
2021/08/17 03:07:32;;;;;;;8.45;4.88;;;;;;;11.74;nan;100864.78;5028935;28;20026;-78
2021/08/17 03:09:57;;;;;;;9.18;4.75;;;;;;;11.77;nan;100873.25;5008391;28;20288;-78
2021/08/17 03:12:23;;;;;;;8.30;4.78;;;;;;;11.71;nan;100865.09;5014910;28;20038;-78
2021/08/17 03:14:48;;;;;;;6.60;4.57;;;;;;;11.72;nan;100869.41;5009175;28;20033;-78
2021/08/17 03:17:13;;;;;;;8.45;4.78;;;;;;;11.66;nan;100871.69;5029975;28;20518;-79
2021/08/17 03:19:38;;;;;;;7.07;4.57;;;;;;;11.71;nan;100867.75;5002776;28;20030;-79
2021/08/17 03:22:04;;;;;;;6.63;4.20;;;;;;;11.79;nan;100868.66;5013252;28;20037;-79
2021/08/17 03:24:29;;;;;;;9.13;5.32;;;;;;;11.80;nan;100867.69;5032388;28;20034;-79
2021/08/17 03:26:55;;;;;;;7.30;4.45;;;;;;;11.88;nan;100869.59;5017199;28;20025;-79
2021/08/17 03:29:20;;;;;;;8.95;4.97;;;;;;;11.98;nan;100864.22;5031517;28;20038;-79
2021/08/17 03:31:46;;;;;;;9.45;4.75;;;;;;;11.98;nan;100862.38;5041615;28;20042;-79
2021/08/17 03:34:11;;;;;;;8.45;5.40;;;;;;;12.01;nan;100864.75;5033989;28;20033;-79
2021/08/17 03:36:36;;;;;;;11.00;5.50;;;;;;;12.02;nan;100865.56;5043711;28;20037;-78
2021/08/17 03:39:02;;;;;;;11.00;5.88;;;;;;;12.09;nan;100864.81;5017307;28;20040;-78
2021/08/17 03:41:28;;;;;;;11.77;5.57;;;;;;;12.03;nan;100860.09;5034933;28;20072;-78
2021/08/17 03:43:53;;;;;;;8.98;5.47;;;;;;;12.03;nan;100867.22;5027678;28;20245;-78
2021/08/17 03:46:18;;;;;;;8.20;5.22;;;;;;;12.11;nan;100865.50;5027755;28;20573;-79
2021/08/17 03:48:44;;;;;;;10.35;5.30;;;;;;;12.15;nan;100866.00;5031261;28;20437;-77
2021/08/17 03:51:09;;;;;;;10.70;5.68;;;;;;;12.15;nan;100875.78;5007085;28;20045;-76
2021/08/17 03:53:36;;;;;;;10.48;5.70;;;;;;;12.10;nan;100863.81;5027872;28;20200;-77
2021/08/17 03:56:01;;;;;;;10.35;5.78;;;;;;;12.13;nan;100867.97;5026748;28;20186;-77
2021/08/17 03:58:27;;;;;;;12.95;6.03;;;;;;;12.12;nan;100868.97;5013662;28;20041;-77
2021/08/17 04:00:52;;;;;;;9.32;5.70;;;;;;;12.09;nan;100870.09;5009634;28;20445;-77
2021/08/17 04:03:17;;;;;;;9.75;5.43;;;;;;;12.14;nan;100871.47;5024916;28;20117;-77
2021/08/17 04:05:43;;;;;;;10.48;5.88;;;;;;;12.14;nan;100867.00;5026385;28;20087;-78
2021/08/17 04:08:08;;;;;;;10.00;5.38;;;;;;;12.15;nan;100867.81;5023799;28;20363;-77
2021/08/17 04:10:33;;;;;;;12.20;5.72;;;;;;;12.16;nan;100880.13;5025717;28;20034;-77
2021/08/17 04:12:59;;;;;;;14.40;5.60;;;;;;;12.15;nan;100873.13;5029850;28;20128;-77
2021/08/17 04:15:25;;;;;;;10.05;6.00;;;;;;;12.11;nan;100872.63;5026388;28;20026;-77
2021/08/17 04:17:50;;;;;;;7.97;4.82;;;;;;;12.07;nan;100880.03;5031038;28;20033;-77
2021/08/17 04:20:16;;;;;;;10.18;6.13;;;;;;;12.11;nan;100883.22;5025400;28;20398;-77
2021/08/17 04:22:41;;;;;;;9.68;5.72;;;;;;;12.17;nan;100887.06;5014192;28;20029;-77
2021/08/17 04:25:08;;;;;;;11.90;5.72;;;;;;;12.15;nan;100883.72;5032064;28;20183;-78
2021/08/17 04:27:34;;;;;;;12.00;6.30;;;;;;;12.11;nan;100889.34;5031835;28;20061;-77
2021/08/17 04:29:59;;;;;;;10.45;5.43;;;;;;;12.09;nan;100898.44;5014249;28;20180;-78
2021/08/17 04:32:25;;;;;;;12.77;5.40;;;;;;;12.03;nan;100894.56;5031581;28;20064;-77
2021/08/17 04:34:50;;;;;;;10.50;5.88;;;;;;;12.05;nan;100902.38;5027135;28;20240;-77
2021/08/17 04:37:15;;;;;;;11.05;5.88;;;;;;;12.10;nan;100910.69;5028502;28;20217;-77
2021/08/17 04:39:40;;;;;;;9.55;5.90;;;;;;;12.20;nan;100910.59;5016707;28;20037;-78
2021/08/17 04:42:06;;;;;;;9.05;5.72;;;;;;;12.21;nan;100914.94;5022593;28;20044;-77
2021/08/17 04:44:32;;;;;;;10.80;6.07;;;;;;;12.22;nan;100911.28;5031494;28;20437;-77
2021/08/17 04:46:57;;;;;;;11.32;6.10;;;;;;;12.16;nan;100915.41;5031297;28;20414;-77
2021/08/17 04:49:23;;;;;;;9.68;5.65;;;;;;;12.14;nan;100920.03;5026678;28;20030;-77
2021/08/17 04:51:48;;;;;;;9.02;5.50;;;;;;;12.12;nan;100919.34;5002593;28;20092;-78
2021/08/17 04:54:13;;;;;;;8.85;5.32;;;;;;;12.14;nan;100913.91;5030121;28;20156;-77
2021/08/17 04:56:39;;;;;;;11.32;5.82;;;;;;;12.17;nan;100922.34;5031940;28;20117;-77
2021/08/17 04:59:04;;;;;;;10.55;5.95;;;;;;;12.15;nan;100913.72;5017518;28;20041;-77
2021/08/17 05:01:30;;;;;;;8.63;5.63;;;;;;;12.17;nan;100925.00;5017620;28;20037;-78
2021/08/17 05:03:56;;;;;;;9.50;5.75;;;;;;;12.19;nan;100919.56;5030691;28;20075;-80
2021/08/17 05:06:22;;;;;;;10.82;5.55;;;;;;;12.20;nan;100915.91;5029525;28;20058;-78
2021/08/17 05:08:47;;;;;;;11.73;6.18;;;;;;;12.10;nan;100914.19;5014146;28;20514;-76
2021/08/17 05:11:13;;;;;;;9.00;5.68;;;;;;;12.09;nan;100917.81;5006184;28;20108;-77
2021/08/17 05:13:38;;;;;;;8.88;5.57;;;;;;;12.22;nan;100913.94;5014999;28;20030;-77
2021/08/17 05:16:04;;;;;;;8.77;5.78;;;;;;;12.28;nan;100921.31;5030901;28;20505;-77
2021/08/17 05:18:32;;;;;;;11.85;5.75;;;;;;;12.19;nan;100917.75;5031519;28;20045;-78
2021/08/17 05:21:01;;;;;;;10.07;5.10;;;;;;;12.30;nan;100922.81;5026790;28;20038;-77
2021/08/17 05:23:27;;;;;;;8.70;5.63;;;;;;;12.38;nan;100921.22;5006869;28;20445;-77
2021/08/17 05:25:52;;;;;;;9.35;5.20;;;;;;;12.39;nan;100920.22;5023764;28;20033;-78
2021/08/17 05:28:18;;;;;;;9.00;5.47;;;;;;;12.56;nan;100923.81;5026553;28;20029;-77
2021/08/17 05:30:43;;;;;;;9.80;4.90;;;;;;;12.76;nan;100925.28;5011239;28;20040;-77
2021/08/17 05:33:08;;;;;;;8.90;5.60;;;;;;;12.94;nan;100934.03;5032139;28;20040;-77
2021/08/17 05:35:34;;;;;;;10.82;5.78;;;;;;;13.06;nan;100941.72;5000702;28;20561;-77
2021/08/17 05:37:59;;;;;;;9.80;5.47;;;;;;;13.16;nan;100947.75;5014267;28;20116;-77
2021/08/17 05:40:24;;;;;;;7.88;4.70;;;;;;;13.30;nan;100951.66;5031819;28;20041;-78
2021/08/17 05:42:50;;;;;;;8.43;4.85;;;;;;;13.44;nan;100937.75;5031888;28;20060;-76
2021/08/17 05:45:15;;;;;;;7.75;4.55;;;;;;;13.78;nan;100944.88;5030750;28;20108;-78
2021/08/17 05:47:45;;;;;;;10.30;5.13;;;;;;;13.98;nan;100953.38;5008392;28;20398;-77
2021/08/17 05:50:12;;;;;;;8.57;5.03;;;;;;;14.13;nan;100949.06;5030443;28;20498;-77
2021/08/17 05:52:37;;;;;;;9.95;5.00;;;;;;;14.35;nan;100958.25;5025849;28;20041;-78
2021/08/17 05:55:07;;;;;;;7.57;4.85;;;;;;;14.42;nan;100953.09;5021339;28;20129;-76
2021/08/17 05:57:32;;;;;;;8.75;5.32;;;;;;;14.64;nan;100955.09;5033173;28;20044;-77
2021/08/17 05:59:58;;;;;;;8.82;4.80;;;;;;;14.72;nan;100950.78;5014661;28;20097;-77
2021/08/17 06:02:23;;;;;;;9.52;4.82;;;;;;;14.99;nan;100954.88;5033365;28;20029;-76
2021/08/17 06:04:48;;;;;;;8.18;5.00;;;;;;;14.95;nan;100964.22;5029121;28;20037;-77
2021/08/17 06:07:17;;;;;;;9.63;5.07;;;;;;;14.96;nan;100956.03;5014442;28;20025;-77
2021/08/17 06:09:43;;;;;;;8.18;4.68;;;;;;;14.99;nan;100953.06;5032827;28;20437;-76
2021/08/17 06:12:08;;;;;;;9.30;5.60;;;;;;;15.10;nan;100962.50;4996544;28;20099;-77
2021/08/17 06:14:33;;;;;;;10.48;5.65;;;;;;;15.20;nan;100957.81;5016518;28;20048;-76
2021/08/17 06:16:59;;;;;;;9.88;6.00;;;;;;;15.20;nan;100967.63;5006149;28;20045;-76
2021/08/17 06:19:24;;;;;;;8.07;4.90;;;;;;;15.68;nan;100979.09;5033469;28;20426;-77
2021/08/17 06:21:49;;;;;;;7.55;5.00;;;;;;;16.10;nan;100978.72;5032617;28;20124;-77
2021/08/17 06:24:15;;;;;;;6.80;4.55;;;;;;;16.60;nan;100983.72;5029572;28;20532;-77
2021/08/17 06:26:40;;;;;;;8.57;4.40;;;;;;;16.63;nan;100988.69;5034615;28;20025;-77
2021/08/17 06:29:05;;;;;;;9.70;5.15;;;;;;;16.76;nan;100979.06;5035444;28;20124;-77
2021/08/17 06:31:31;;;;;;;7.47;4.43;;;;;;;16.77;nan;100983.38;5018403;28;20030;-76
2021/08/17 06:34:00;;;;;;;8.82;5.13;;;;;;;17.28;nan;100979.19;5027698;28;20073;-77
2021/08/17 06:36:26;;;;;;;9.18;5.50;;;;;;;17.49;nan;100981.94;5029274;28;20107;-77
2021/08/17 06:38:51;;;;;;;7.40;4.35;;;;;;;17.50;nan;100978.28;5036727;28;20037;-77
2021/08/17 06:41:17;;;;;;;7.80;4.93;;;;;;;17.79;nan;100973.91;5018948;28;20045;-77
2021/08/17 06:43:43;;;;;;;7.95;4.82;;;;;;;18.10;nan;100980.84;5036885;28;20402;-77
2021/08/17 06:46:08;;;;;;;7.75;4.80;;;;;;;18.31;nan;100977.34;5018489;28;20106;-77
2021/08/17 06:48:34;;;;;;;10.07;5.93;;;;;;;18.56;nan;100983.13;5032906;28;20112;-77
2021/08/17 06:50:59;;;;;;;10.52;6.20;;;;;;;18.59;nan;100975.56;5017603;28;20034;-77
2021/08/17 06:53:25;;;;;;;7.70;4.85;;;;;;;18.62;nan;100977.00;5021663;28;20037;-77
2021/08/17 06:55:50;;;;;;;8.25;5.20;;;;;;;18.89;nan;100978.06;5019785;28;20210;-78
2021/08/17 06:58:16;;;;;;;11.75;6.05;;;;;;;18.91;nan;100984.06;5036416;28;20514;-77
2021/08/17 07:00:46;;;;;;;10.60;5.80;;;;;;;19.05;nan;100975.09;5018705;28;20052;-77
2021/08/17 07:03:12;;;;;;;11.60;5.75;;;;;;;18.44;nan;100969.44;5018106;28;20060;-77
2021/08/17 07:05:40;;;;;;;9.07;5.40;;;;;;;18.15;nan;100973.06;5037370;28;20034;-78
2021/08/17 07:08:07;;;;;;;8.07;5.43;;;;;;;17.69;nan;100976.06;5036990;28;20540;-77
2021/08/17 07:10:33;;;;;;;10.25;5.97;;;;;;;17.32;nan;100970.63;5037542;28;20049;-77
2021/08/17 07:12:59;;;;;;;10.73;6.00;;;;;;;17.66;nan;100966.53;5037205;28;20120;-77
2021/08/17 07:15:24;;;;;;;10.57;5.75;;;;;;;18.03;nan;100964.72;5036213;28;20648;-77
2021/08/17 07:17:50;;;;;;;10.60;6.47;;;;;;;18.08;nan;100962.31;5036311;28;20512;-77
2021/08/17 07:20:15;;;;;;;9.35;6.07;;;;;;;17.81;nan;100969.22;5035369;28;20061;-77
2021/08/17 07:22:41;;;;;;;10.00;5.85;;;;;;;17.34;nan;100967.78;5036790;28;20026;-77
2021/08/17 07:25:07;;;;;;;8.77;5.80;;;;;;;16.86;nan;100964.63;5038311;28;20044;-77
2021/08/17 07:27:32;;;;;;;9.27;6.18;;;;;;;17.31;nan;100965.50;5040206;28;20061;-77
2021/08/17 07:29:58;;;;;;;10.55;6.10;;;;;;;18.11;nan;100969.13;5038616;28;20029;-76
2021/08/17 07:32:23;;;;;;;10.35;6.10;;;;;;;18.01;nan;100966.75;5038754;28;20049;-77
2021/08/17 07:34:48;;;;;;;9.05;5.97;;;;;;;18.19;nan;100967.16;5040221;28;20033;-77
2021/08/17 07:37:14;;;;;;;8.70;5.15;;;;;;;18.38;nan;100971.03;5020152;28;20057;-77
2021/08/17 07:39:39;;;;;;;11.15;5.32;;;;;;;18.62;nan;100972.47;5037841;28;20370;-77
2021/08/17 07:42:05;;;;;;;8.70;5.20;;;;;;;19.08;nan;100960.47;5039069;28;20029;-76
2021/08/17 07:44:31;;;;;;;8.85;4.75;;;;;;;19.44;nan;100972.81;5038086;28;20067;-76
2021/08/17 07:46:57;;;;;;;12.00;5.63;;;;;;;19.55;nan;100979.47;5038563;28;20029;-77
2021/08/17 07:49:22;;;;;;;9.13;5.70;;;;;;;19.95;nan;100972.44;5033508;28;20026;-76
2021/08/17 07:51:49;;;;;;;8.13;4.72;;;;;;;19.81;nan;100973.41;5039778;28;20589;-77
2021/08/17 07:54:14;;;;;;;11.48;6.28;;;;;;;20.01;nan;100974.28;5034838;28;20072;-77
2021/08/17 07:56:40;;;;;;;8.52;5.15;;;;;;;20.70;nan;100980.38;5038015;28;20184;-77
2021/08/17 07:59:05;;;;;;;8.63;5.43;;;;;;;21.09;nan;100975.97;5038226;28;20033;-77
2021/08/17 08:01:30;;;;;;;9.02;5.70;;;;;;;21.55;nan;100980.44;5037241;28;20067;-76
2021/08/17 08:03:57;;;;;;;8.50;5.57;;;;;;;21.68;nan;100979.53;5037788;28;20041;-76
2021/08/17 08:06:23;;;;;;;9.35;5.75;;;;;;;21.21;nan;100969.75;5036997;28;20093;-76
2021/08/17 08:08:48;;;;;;;;;;;;;;;21.57;nan;100981.03;5035856;28;20079;-76
2021/08/17 08:11:13;;;;;;;8.63;5.83;;;;;;;21.68;nan;100980.38;5037215;28;19917;-76
2021/08/17 08:13:39;;;;;;;7.65;4.70;;;;;;;22.20;nan;100975.75;5037133;28;20041;-77
2021/08/17 08:16:04;;;;;;;8.88;5.68;;;;;;;22.75;nan;100977.81;5019104;28;20037;-76
2021/08/17 08:18:30;;;;;;;10.38;6.15;;;;;;;22.46;nan;100972.03;5036913;28;20037;-76
2021/08/17 08:20:55;;;;;;;9.23;5.78;;;;;;;22.74;nan;100968.09;5034652;28;20393;-77
2021/08/17 08:23:20;;;;;;;8.73;5.55;;;;;;;23.07;nan;100962.38;5016218;28;20069;-76
2021/08/17 08:25:46;;;;;;;10.73;6.18;;;;;;;23.38;nan;100965.97;5033343;28;20037;-76
2021/08/17 08:28:11;;;;;;;8.63;6.22;;;;;;;22.59;nan;100954.09;5032534;28;20022;-77
2021/08/17 08:30:37;;;;;;;8.55;5.90;;;;;;;22.56;nan;100952.69;5034898;28;20087;-76
2021/08/17 08:33:02;;;;;;;8.60;5.85;;;;;;;23.04;nan;100964.69;5033316;28;20075;-76
2021/08/17 08:35:28;;;;;;;8.07;5.25;;;;;;;23.16;nan;100962.09;5032856;28;20035;-77
2021/08/17 08:37:55;;;;;;;8.55;5.30;;;;;;;23.23;nan;100957.44;5034007;28;20038;-77
2021/08/17 08:40:22;;;;;;;9.23;5.35;;;;;;;22.93;nan;100962.69;5033667;28;20042;-77
2021/08/17 08:42:48;;;;;;;11.43;6.63;;;;;;;22.01;nan;100963.22;5034902;28;20054;-77
2021/08/17 08:45:13;;;;;;;9.07;5.97;;;;;;;20.93;nan;100972.72;5017825;28;20034;-76
2021/08/17 08:47:40;;;;;;;9.10;5.88;;;;;;;20.37;nan;100970.41;5034456;28;20079;-77
2021/08/17 08:50:06;;;;;;;8.13;5.47;;;;;;;20.15;nan;100964.41;5034029;28;20105;-76
2021/08/17 08:52:32;;;;;;;12.63;6.55;;;;;;;20.12;nan;100968.31;5033801;28;20116;-76
2021/08/17 08:54:57;;;;;;;9.85;5.68;;;;;;;19.76;nan;100970.50;5031975;28;20117;-76
2021/08/17 08:57:23;;;;;;;9.32;5.68;;;;;;;19.86;nan;100962.91;5031350;28;20068;-76
2021/08/17 08:59:48;;;;;;;8.13;5.70;;;;;;;20.22;nan;100956.38;5032483;28;20041;-76
2021/08/17 09:02:17;;;;;;;10.75;5.95;;;;;;;20.19;nan;100954.06;5031272;28;20044;-76
2021/08/17 09:04:53;;;;;;;10.45;7.03;;;;;;;20.14;nan;100950.16;5031474;28;20030;-76
2021/08/17 09:07:38;;;;;;;10.10;6.28;;;;;;;19.74;nan;100943.88;5031408;28;20033;-76
2021/08/17 09:10:12;;;;;;;8.30;5.50;;;;;;;19.61;nan;100939.25;5031517;28;20045;-76
2021/08/17 09:12:43;;;;;;;12.75;6.75;;;;;;;19.35;nan;100949.88;5030618;28;20116;-76
2021/08/17 09:15:23;;;;;;;9.80;6.82;;;;;;;18.94;nan;100948.00;5013372;28;20485;-76
2021/08/17 09:18:03;;;;;;;10.07;5.93;;;;;;;18.90;nan;100955.59;5031368;28;20056;-76
2021/08/17 09:20:36;;;;;;;9.57;5.97;;;;;;;18.85;nan;100948.16;5031218;28;20038;-76
2021/08/17 09:23:20;;;;;;;8.98;5.90;;;;;;;18.74;nan;100947.84;5032039;28;20041;-76
2021/08/17 09:25:46;;;;;;;10.02;6.60;;;;;;;18.37;nan;100961.34;5032228;28;20034;-76
2021/08/17 09:28:36;;;;;;;10.50;6.65;;;;;;;18.34;nan;100960.91;5031096;28;20076;-75
2021/08/17 09:31:23;;;;;;;11.23;6.80;;;;;;;17.93;nan;100954.34;5031571;28;20029;-76
2021/08/17 09:33:48;;;;;;;11.02;6.43;;;;;;;18.31;nan;100956.75;5010981;28;20033;-76
2021/08/17 09:36:13;;;;;;;9.93;6.47;;;;;;;18.26;nan;100951.16;5030505;28;20025;-76
2021/08/17 09:38:39;;;;;;;12.02;6.90;;;;;;;18.28;nan;100951.78;5013175;28;20037;-76
2021/08/17 09:41:18;;;;;;;10.30;6.15;;;;;;;18.29;nan;100958.81;5030941;28;20116;-76
2021/08/17 09:44:04;;;;;;;12.05;7.32;;;;;;;18.40;nan;100960.97;5028550;28;20067;-76
2021/08/17 09:46:31;;;;;;;12.43;7.25;;;;;;;18.35;nan;100954.53;5029572;28;20033;-76
2021/08/17 09:49:23;;;;;;;11.40;7.43;;;;;;;18.44;nan;100953.38;5032436;28;20041;-76
2021/08/17 09:51:49;;;;;;;11.63;7.32;;;;;;;18.47;nan;100947.63;5028362;28;20186;-76
2021/08/17 09:54:19;;;;;;;15.73;9.10;;;;;;;18.78;nan;100943.75;5013073;28;20544;-75
2021/08/17 09:57:04;;;;;;;12.75;8.35;;;;;;;18.86;nan;100947.13;5031178;28;20028;-76
2021/08/17 09:59:32;;;;;;;14.00;8.57;;;;;;;18.68;nan;100952.94;5009661;28;20662;-76
2021/08/17 10:01:58;;;;;;;11.73;7.90;;;;;;;18.76;nan;100954.69;5027350;28;20037;-76
2021/08/17 10:04:24;;;;;;;11.55;7.97;;;;;;;18.65;nan;100952.50;5030717;28;20037;-76
2021/08/17 10:07:00;;;;;;;13.52;7.75;;;;;;;18.70;nan;100951.94;5030777;28;20068;-76
2021/08/17 10:09:27;;;;;;;10.80;7.63;;;;;;;18.78;nan;100952.66;5012804;28;20040;-76
2021/08/17 10:11:53;;;;;;;10.75;7.00;;;;;;;18.60;nan;100947.72;5031965;28;20386;-75
2021/08/17 10:14:18;;;;;;;12.18;7.18;;;;;;;18.59;nan;100948.78;5031037;28;20042;-76
2021/08/17 10:16:45;;;;;;;12.35;7.35;;;;;;;18.54;nan;100956.53;5030827;28;20040;-76
2021/08/17 10:19:13;;;;;;;10.80;6.88;;;;;;;18.25;nan;100953.00;5030933;28;20463;-76
2021/08/17 10:21:40;;;;;;;11.88;7.45;;;;;;;18.28;nan;100945.59;5031434;28;20065;-75
2021/08/17 10:24:24;;;;;;;11.23;6.97;;;;;;;18.32;nan;100939.66;5030815;28;20033;-76
2021/08/17 10:26:49;;;;;;;10.65;6.88;;;;;;;18.14;nan;100925.91;5013434;28;20053;-76
2021/08/17 10:29:27;;;;;;;12.68;6.88;;;;;;;17.96;nan;100924.50;5032069;28;20049;-75
2021/08/17 10:31:52;;;;;;;11.32;7.10;;;;;;;17.94;nan;100910.50;5038561;28;20040;-77
2021/08/17 10:34:18;;;;;;;12.00;6.80;;;;;;;18.11;nan;100908.38;5043564;28;20030;-75
2021/08/17 10:36:45;;;;;;;13.98;7.32;;;;;;;17.94;nan;100910.50;5044710;28;20029;-76
2021/08/17 10:39:16;;;;;;;11.05;7.25;;;;;;;18.04;nan;100910.16;5043250;28;20033;-76
2021/08/17 10:41:43;;;;;;;10.68;6.97;;;;;;;17.76;nan;100912.75;5038331;28;20030;-76
2021/08/17 10:44:12;;;;;;;11.73;7.63;;;;;;;17.75;nan;100906.56;5020210;28;20042;-77
2021/08/17 10:46:51;;;;;;;9.77;6.47;;;;;;;18.00;nan;100900.88;5026075;28;20140;-77
2021/08/17 10:49:28;;;;;;;11.18;7.50;;;;;;;18.40;nan;100898.53;4996566;28;20037;-77
2021/08/17 10:52:01;;;;;;;9.63;6.60;;;;;;;18.61;nan;100906.53;5009091;28;20449;-76
2021/08/17 10:54:27;;;;;;;11.30;6.93;;;;;;;19.18;nan;100909.97;5033944;28;20025;-78
2021/08/17 10:56:53;;;;;;;10.82;7.07;;;;;;;19.54;nan;100911.56;5035856;28;20402;-77
2021/08/17 10:59:40;;;;;;;11.82;7.22;;;;;;;19.27;nan;100922.19;5036136;28;20037;-76
2021/08/17 11:02:08;;;;;;;10.38;7.07;;;;;;;19.27;nan;100907.97;5028501;28;20220;-77
2021/08/17 11:04:38;;;;;;;11.45;7.10;;;;;;;19.27;nan;100903.44;5037006;28;20068;-77
2021/08/17 11:07:21;;;;;;;13.93;8.90;;;;;;;19.39;nan;100900.19;5037546;28;20049;-77
2021/08/17 11:09:46;;;;;;;15.48;8.35;;;;;;;19.73;nan;100899.28;5039225;28;20034;-78
2021/08/17 11:12:11;;;;;;;10.65;6.60;;;;;;;19.98;nan;100907.59;5037133;28;20040;-76
2021/08/17 11:14:39;;;;;;;11.82;7.38;;;;;;;20.11;nan;100904.09;5020369;28;20398;-77
2021/08/17 11:17:09;;;;;;;11.15;7.35;;;;;;;20.13;nan;100905.53;5039110;28;20494;-78
2021/08/17 11:19:37;;;;;;;12.00;8.30;;;;;;;20.19;nan;100914.63;5038883;28;20041;-77
2021/08/17 11:22:08;;;;;;;10.85;6.10;;;;;;;20.52;nan;100913.78;5019992;28;20100;-77
2021/08/17 11:24:36;;;;;;;10.18;6.47;;;;;;;20.76;nan;100905.13;5019368;28;20156;-77
2021/08/17 11:27:05;;;;;;;9.75;5.88;;;;;;;21.07;nan;100910.81;5019484;28;20037;-78
2021/08/17 11:29:32;;;;;;;9.90;5.50;;;;;;;21.33;nan;100905.38;5016429;28;20060;-77
2021/08/17 11:32:04;;;;;;;6.88;4.47;;;;;;;21.44;nan;100884.25;5039858;28;20040;-78
2021/08/17 11:34:36;;;;;;;7.40;4.90;;;;;;;21.40;nan;100875.75;5022694;28;20034;-78
2021/08/17 11:37:09;;;;;;;7.07;5.00;;;;;;;21.55;nan;100889.75;5019340;28;20217;-77